sensor_id;sensor_type;location;lat;lon;timestamp;P1;durP1;ratioP1;P2;durP2;ratioP2
7160;SDS011;3622;53.576;9.978;2022-12-07T00:02:23;19.87;;;11.90;;
7160;SDS011;3622;53.576;9.978;2022-12-07T00:04:49;22.40;;;12.93;;
7160;SDS011;3622;53.576;9.978;2022-12-07T00:07:15;18.23;;;11.60;;
7160;SDS011;3622;53.576;9.978;2022-12-07T00:09:41;21.83;;;12.40;;
7160;SDS011;3622;53.576;9.978;2022-12-07T00:12:07;21.50;;;13.10;;
7160;SDS011;3622;53.576;9.978;2022-12-07T00:14:33;21.60;;;12.40;;
7160;SDS011;3622;53.576;9.978;2022-12-07T00:16:59;28.27;;;13.33;;
7160;SDS011;3622;53.576;9.978;2022-12-07T00:19:26;24.30;;;11.90;;
7160;SDS011;3622;53.576;9.978;2022-12-07T00:21:52;21.23;;;12.20;;
7160;SDS011;3622;53.576;9.978;2022-12-07T00:24:18;21.80;;;12.43;;
7160;SDS011;3622;53.576;9.978;2022-12-07T00:26:44;22.53;;;13.00;;
7160;SDS011;3622;53.576;9.978;2022-12-07T00:29:20;24.00;;;12.57;;
7160;SDS011;3622;53.576;9.978;2022-12-07T00:31:47;24.30;;;12.67;;
7160;SDS011;3622;53.576;9.978;2022-12-07T00:34:18;22.13;;;12.80;;
7160;SDS011;3622;53.576;9.978;2022-12-07T00:36:44;18.87;;;11.53;;
7160;SDS011;3622;53.576;9.978;2022-12-07T00:39:10;19.00;;;12.23;;
7160;SDS011;3622;53.576;9.978;2022-12-07T00:41:36;24.67;;;11.73;;
7160;SDS011;3622;53.576;9.978;2022-12-07T00:44:02;18.40;;;11.50;;
7160;SDS011;3622;53.576;9.978;2022-12-07T00:46:29;21.30;;;11.87;;
7160;SDS011;3622;53.576;9.978;2022-12-07T00:48:55;17.60;;;11.27;;
7160;SDS011;3622;53.576;9.978;2022-12-07T00:51:21;17.90;;;10.90;;
7160;SDS011;3622;53.576;9.978;2022-12-07T00:53:48;16.47;;;10.60;;
7160;SDS011;3622;53.576;9.978;2022-12-07T00:56:21;18.17;;;11.10;;
7160;SDS011;3622;53.576;9.978;2022-12-07T00:58:54;17.23;;;9.60;;
7160;SDS011;3622;53.576;9.978;2022-12-07T01:01:21;15.37;;;9.67;;
7160;SDS011;3622;53.576;9.978;2022-12-07T01:03:47;15.77;;;10.03;;
7160;SDS011;3622;53.576;9.978;2022-12-07T01:06:14;21.07;;;10.30;;
7160;SDS011;3622;53.576;9.978;2022-12-07T01:08:40;14.90;;;9.57;;
7160;SDS011;3622;53.576;9.978;2022-12-07T01:11:07;18.80;;;9.90;;
7160;SDS011;3622;53.576;9.978;2022-12-07T01:13:34;17.10;;;9.53;;
7160;SDS011;3622;53.576;9.978;2022-12-07T01:16:01;15.30;;;9.40;;
7160;SDS011;3622;53.576;9.978;2022-12-07T01:18:28;14.90;;;9.70;;
7160;SDS011;3622;53.576;9.978;2022-12-07T01:21:01;15.30;;;9.40;;
7160;SDS011;3622;53.576;9.978;2022-12-07T01:23:28;16.83;;;9.70;;
7160;SDS011;3622;53.576;9.978;2022-12-07T01:25:57;15.80;;;9.80;;
7160;SDS011;3622;53.576;9.978;2022-12-07T01:28:24;22.13;;;9.53;;
7160;SDS011;3622;53.576;9.978;2022-12-07T01:30:59;13.40;;;9.10;;
7160;SDS011;3622;53.576;9.978;2022-12-07T01:33:26;22.57;;;9.30;;
7160;SDS011;3622;53.576;9.978;2022-12-07T01:35:53;16.23;;;9.37;;
7160;SDS011;3622;53.576;9.978;2022-12-07T01:38:19;16.07;;;9.40;;
7160;SDS011;3622;53.576;9.978;2022-12-07T01:40:44;19.63;;;9.97;;
7160;SDS011;3622;53.576;9.978;2022-12-07T01:43:17;20.63;;;9.53;;
7160;SDS011;3622;53.576;9.978;2022-12-07T01:45:44;21.07;;;10.20;;
7160;SDS011;3622;53.576;9.978;2022-12-07T01:48:10;19.27;;;9.70;;
7160;SDS011;3622;53.576;9.978;2022-12-07T01:50:37;24.33;;;11.63;;
7160;SDS011;3622;53.576;9.978;2022-12-07T01:53:04;19.63;;;10.80;;
7160;SDS011;3622;53.576;9.978;2022-12-07T01:55:31;21.53;;;10.13;;
7160;SDS011;3622;53.576;9.978;2022-12-07T01:57:57;17.30;;;10.30;;
7160;SDS011;3622;53.576;9.978;2022-12-07T02:00:24;15.07;;;10.40;;
7160;SDS011;3622;53.576;9.978;2022-12-07T02:02:52;15.20;;;9.40;;
7160;SDS011;3622;53.576;9.978;2022-12-07T02:05:19;14.97;;;8.87;;
7160;SDS011;3622;53.576;9.978;2022-12-07T02:07:45;18.80;;;10.60;;
7160;SDS011;3622;53.576;9.978;2022-12-07T02:12:38;17.77;;;8.63;;
7160;SDS011;3622;53.576;9.978;2022-12-07T02:15:05;16.70;;;8.30;;
7160;SDS011;3622;53.576;9.978;2022-12-07T02:17:41;15.70;;;8.47;;
7160;SDS011;3622;53.576;9.978;2022-12-07T02:25:29;16.33;;;9.43;;
7160;SDS011;3622;53.576;9.978;2022-12-07T02:28:04;14.83;;;7.57;;
7160;SDS011;3622;53.576;9.978;2022-12-07T02:30:33;17.60;;;9.80;;
7160;SDS011;3622;53.576;9.978;2022-12-07T02:33:03;12.23;;;6.07;;
7160;SDS011;3622;53.576;9.978;2022-12-07T02:35:32;10.37;;;6.43;;
7160;SDS011;3622;53.576;9.978;2022-12-07T02:38:14;12.13;;;5.87;;
7160;SDS011;3622;53.576;9.978;2022-12-07T02:40:43;10.03;;;5.23;;
7160;SDS011;3622;53.576;9.978;2022-12-07T02:43:12;7.20;;;4.00;;
7160;SDS011;3622;53.576;9.978;2022-12-07T02:45:40;5.33;;;4.17;;
7160;SDS011;3622;53.576;9.978;2022-12-07T02:48:07;10.03;;;4.67;;
7160;SDS011;3622;53.576;9.978;2022-12-07T02:50:35;6.40;;;4.10;;
7160;SDS011;3622;53.576;9.978;2022-12-07T02:53:01;3.90;;;3.40;;
7160;SDS011;3622;53.576;9.978;2022-12-07T02:55:32;4.53;;;3.70;;
7160;SDS011;3622;53.576;9.978;2022-12-07T02:58:09;5.33;;;3.33;;
7160;SDS011;3622;53.576;9.978;2022-12-07T03:03:24;8.73;;;3.33;;
7160;SDS011;3622;53.576;9.978;2022-12-07T03:08:48;5.73;;;3.13;;
7160;SDS011;3622;53.576;9.978;2022-12-07T03:11:18;5.83;;;3.20;;
7160;SDS011;3622;53.576;9.978;2022-12-07T03:18:58;6.77;;;2.90;;
7160;SDS011;3622;53.576;9.978;2022-12-07T03:21:31;5.43;;;2.30;;
7160;SDS011;3622;53.576;9.978;2022-12-07T03:23:58;4.93;;;2.97;;
7160;SDS011;3622;53.576;9.978;2022-12-07T03:26:28;3.33;;;2.50;;
7160;SDS011;3622;53.576;9.978;2022-12-07T03:28:56;4.57;;;1.80;;
7160;SDS011;3622;53.576;9.978;2022-12-07T03:31:25;2.40;;;2.27;;
7160;SDS011;3622;53.576;9.978;2022-12-07T03:36:25;3.73;;;1.93;;
7160;SDS011;3622;53.576;9.978;2022-12-07T03:39:17;4.30;;;1.97;;
7160;SDS011;3622;53.576;9.978;2022-12-07T03:41:39;3.77;;;1.73;;
7160;SDS011;3622;53.576;9.978;2022-12-07T03:44:05;1.83;;;1.50;;
7160;SDS011;3622;53.576;9.978;2022-12-07T03:49:04;2.73;;;1.70;;
7160;SDS011;3622;53.576;9.978;2022-12-07T03:56:56;4.00;;;1.23;;
7160;SDS011;3622;53.576;9.978;2022-12-07T03:59:23;4.00;;;2.10;;
7160;SDS011;3622;53.576;9.978;2022-12-07T04:01:54;2.10;;;1.40;;
7160;SDS011;3622;53.576;9.978;2022-12-07T04:04:20;3.40;;;1.93;;
7160;SDS011;3622;53.576;9.978;2022-12-07T04:06:46;2.83;;;1.40;;
7160;SDS011;3622;53.576;9.978;2022-12-07T04:09:12;4.37;;;1.50;;
7160;SDS011;3622;53.576;9.978;2022-12-07T04:11:39;2.93;;;1.50;;
7160;SDS011;3622;53.576;9.978;2022-12-07T04:14:05;2.20;;;1.53;;
7160;SDS011;3622;53.576;9.978;2022-12-07T04:16:50;2.00;;;1.80;;
7160;SDS011;3622;53.576;9.978;2022-12-07T04:19:17;2.23;;;2.03;;
7160;SDS011;3622;53.576;9.978;2022-12-07T04:21:44;2.60;;;2.10;;
7160;SDS011;3622;53.576;9.978;2022-12-07T04:24:11;2.43;;;1.97;;
7160;SDS011;3622;53.576;9.978;2022-12-07T04:26:37;2.33;;;2.13;;
7160;SDS011;3622;53.576;9.978;2022-12-07T04:29:03;1.80;;;1.60;;
7160;SDS011;3622;53.576;9.978;2022-12-07T04:31:29;3.13;;;1.70;;
7160;SDS011;3622;53.576;9.978;2022-12-07T04:33:55;4.03;;;2.20;;
7160;SDS011;3622;53.576;9.978;2022-12-07T04:36:21;7.20;;;2.00;;
7160;SDS011;3622;53.576;9.978;2022-12-07T04:38:47;2.53;;;2.33;;
7160;SDS011;3622;53.576;9.978;2022-12-07T04:41:13;2.30;;;2.10;;
7160;SDS011;3622;53.576;9.978;2022-12-07T04:43:39;2.50;;;2.13;;
7160;SDS011;3622;53.576;9.978;2022-12-07T04:46:05;4.07;;;2.43;;
7160;SDS011;3622;53.576;9.978;2022-12-07T04:48:31;2.30;;;2.20;;
7160;SDS011;3622;53.576;9.978;2022-12-07T04:50:57;4.97;;;2.40;;
7160;SDS011;3622;53.576;9.978;2022-12-07T04:53:23;2.40;;;2.20;;
7160;SDS011;3622;53.576;9.978;2022-12-07T04:55:49;4.70;;;2.43;;
7160;SDS011;3622;53.576;9.978;2022-12-07T04:58:15;3.23;;;2.60;;
7160;SDS011;3622;53.576;9.978;2022-12-07T05:00:41;3.07;;;2.50;;
7160;SDS011;3622;53.576;9.978;2022-12-07T05:03:07;2.53;;;2.30;;
7160;SDS011;3622;53.576;9.978;2022-12-07T05:05:33;3.33;;;2.97;;
7160;SDS011;3622;53.576;9.978;2022-12-07T05:07:59;3.77;;;2.20;;
7160;SDS011;3622;53.576;9.978;2022-12-07T05:10:25;3.07;;;2.83;;
7160;SDS011;3622;53.576;9.978;2022-12-07T05:12:51;2.80;;;2.60;;
7160;SDS011;3622;53.576;9.978;2022-12-07T05:15:17;3.33;;;2.77;;
7160;SDS011;3622;53.576;9.978;2022-12-07T05:17:43;3.87;;;2.90;;
7160;SDS011;3622;53.576;9.978;2022-12-07T05:20:09;3.03;;;2.83;;
7160;SDS011;3622;53.576;9.978;2022-12-07T05:22:35;2.80;;;2.57;;
7160;SDS011;3622;53.576;9.978;2022-12-07T05:25:02;5.47;;;2.93;;
7160;SDS011;3622;53.576;9.978;2022-12-07T05:27:28;3.40;;;2.70;;
7160;SDS011;3622;53.576;9.978;2022-12-07T05:29:54;9.03;;;2.80;;
7160;SDS011;3622;53.576;9.978;2022-12-07T05:32:19;3.20;;;3.00;;
7160;SDS011;3622;53.576;9.978;2022-12-07T05:34:45;3.27;;;2.80;;
7160;SDS011;3622;53.576;9.978;2022-12-07T05:37:11;7.50;;;3.17;;
7160;SDS011;3622;53.576;9.978;2022-12-07T05:39:37;3.90;;;3.53;;
7160;SDS011;3622;53.576;9.978;2022-12-07T05:42:05;7.90;;;3.47;;
7160;SDS011;3622;53.576;9.978;2022-12-07T05:44:41;5.30;;;2.80;;
7160;SDS011;3622;53.576;9.978;2022-12-07T05:47:08;5.03;;;2.50;;
7160;SDS011;3622;53.576;9.978;2022-12-07T05:49:34;3.30;;;3.10;;
7160;SDS011;3622;53.576;9.978;2022-12-07T05:52:00;4.70;;;2.90;;
7160;SDS011;3622;53.576;9.978;2022-12-07T05:54:26;3.93;;;2.87;;
7160;SDS011;3622;53.576;9.978;2022-12-07T05:56:52;3.20;;;2.90;;
7160;SDS011;3622;53.576;9.978;2022-12-07T05:59:18;6.20;;;3.57;;
7160;SDS011;3622;53.576;9.978;2022-12-07T06:01:47;4.33;;;3.03;;
7160;SDS011;3622;53.576;9.978;2022-12-07T06:04:13;2.83;;;2.63;;
7160;SDS011;3622;53.576;9.978;2022-12-07T06:06:39;3.47;;;2.80;;
7160;SDS011;3622;53.576;9.978;2022-12-07T06:09:05;4.77;;;3.03;;
7160;SDS011;3622;53.576;9.978;2022-12-07T06:11:31;4.57;;;2.57;;
7160;SDS011;3622;53.576;9.978;2022-12-07T06:14:16;2.90;;;2.70;;
7160;SDS011;3622;53.576;9.978;2022-12-07T06:16:42;3.90;;;2.63;;
7160;SDS011;3622;53.576;9.978;2022-12-07T06:19:08;2.73;;;2.50;;
7160;SDS011;3622;53.576;9.978;2022-12-07T06:21:34;4.50;;;3.17;;
7160;SDS011;3622;53.576;9.978;2022-12-07T06:24:00;3.03;;;2.73;;
7160;SDS011;3622;53.576;9.978;2022-12-07T06:26:26;3.30;;;2.30;;
7160;SDS011;3622;53.576;9.978;2022-12-07T06:28:52;9.90;;;2.97;;
7160;SDS011;3622;53.576;9.978;2022-12-07T06:31:18;2.83;;;2.53;;
7160;SDS011;3622;53.576;9.978;2022-12-07T06:33:44;6.07;;;2.70;;
7160;SDS011;3622;53.576;9.978;2022-12-07T06:36:10;6.90;;;2.77;;
7160;SDS011;3622;53.576;9.978;2022-12-07T06:38:37;3.30;;;2.73;;
7160;SDS011;3622;53.576;9.978;2022-12-07T06:41:04;2.50;;;2.30;;
7160;SDS011;3622;53.576;9.978;2022-12-07T06:43:30;6.73;;;3.20;;
7160;SDS011;3622;53.576;9.978;2022-12-07T06:45:56;3.83;;;2.47;;
7160;SDS011;3622;53.576;9.978;2022-12-07T06:48:22;4.47;;;2.30;;
7160;SDS011;3622;53.576;9.978;2022-12-07T06:50:48;9.90;;;2.03;;
7160;SDS011;3622;53.576;9.978;2022-12-07T06:53:14;6.00;;;2.40;;
7160;SDS011;3622;53.576;9.978;2022-12-07T06:55:40;2.50;;;1.70;;
7160;SDS011;3622;53.576;9.978;2022-12-07T06:58:07;3.30;;;2.07;;
7160;SDS011;3622;53.576;9.978;2022-12-07T07:00:33;3.00;;;2.03;;
7160;SDS011;3622;53.576;9.978;2022-12-07T07:03:00;6.60;;;2.20;;
7160;SDS011;3622;53.576;9.978;2022-12-07T07:05:26;3.20;;;2.40;;
7160;SDS011;3622;53.576;9.978;2022-12-07T07:07:52;3.03;;;1.97;;
7160;SDS011;3622;53.576;9.978;2022-12-07T07:10:18;3.60;;;1.90;;
7160;SDS011;3622;53.576;9.978;2022-12-07T07:12:44;2.17;;;1.70;;
7160;SDS011;3622;53.576;9.978;2022-12-07T07:15:10;5.33;;;1.60;;
7160;SDS011;3622;53.576;9.978;2022-12-07T07:17:37;2.60;;;2.00;;
7160;SDS011;3622;53.576;9.978;2022-12-07T07:20:03;2.13;;;1.77;;
7160;SDS011;3622;53.576;9.978;2022-12-07T07:22:29;3.20;;;1.73;;
7160;SDS011;3622;53.576;9.978;2022-12-07T07:24:55;3.10;;;1.87;;
7160;SDS011;3622;53.576;9.978;2022-12-07T07:27:21;4.30;;;1.90;;
7160;SDS011;3622;53.576;9.978;2022-12-07T07:29:47;3.10;;;1.60;;
7160;SDS011;3622;53.576;9.978;2022-12-07T07:32:13;2.47;;;1.90;;
7160;SDS011;3622;53.576;9.978;2022-12-07T07:34:39;8.70;;;1.87;;
7160;SDS011;3622;53.576;9.978;2022-12-07T07:37:05;2.87;;;2.67;;
7160;SDS011;3622;53.576;9.978;2022-12-07T07:39:31;5.77;;;1.60;;
7160;SDS011;3622;53.576;9.978;2022-12-07T07:41:57;2.67;;;1.70;;
7160;SDS011;3622;53.576;9.978;2022-12-07T07:44:23;4.10;;;1.53;;
7160;SDS011;3622;53.576;9.978;2022-12-07T07:46:49;1.70;;;1.60;;
7160;SDS011;3622;53.576;9.978;2022-12-07T07:49:15;13.03;;;3.10;;
7160;SDS011;3622;53.576;9.978;2022-12-07T07:51:41;3.93;;;1.73;;
7160;SDS011;3622;53.576;9.978;2022-12-07T07:54:07;3.00;;;1.30;;
7160;SDS011;3622;53.576;9.978;2022-12-07T07:56:33;1.73;;;1.63;;
7160;SDS011;3622;53.576;9.978;2022-12-07T07:58:59;2.63;;;1.67;;
7160;SDS011;3622;53.576;9.978;2022-12-07T08:01:25;6.07;;;2.13;;
7160;SDS011;3622;53.576;9.978;2022-12-07T08:03:51;4.03;;;1.53;;
7160;SDS011;3622;53.576;9.978;2022-12-07T08:06:17;5.50;;;1.87;;
7160;SDS011;3622;53.576;9.978;2022-12-07T08:08:43;3.37;;;1.70;;
7160;SDS011;3622;53.576;9.978;2022-12-07T08:11:09;3.60;;;1.10;;
7160;SDS011;3622;53.576;9.978;2022-12-07T08:13:35;2.80;;;1.43;;
7160;SDS011;3622;53.576;9.978;2022-12-07T08:16:05;4.30;;;1.80;;
7160;SDS011;3622;53.576;9.978;2022-12-07T08:18:34;2.53;;;1.30;;
7160;SDS011;3622;53.576;9.978;2022-12-07T08:21:01;3.63;;;1.97;;
7160;SDS011;3622;53.576;9.978;2022-12-07T08:23:27;3.10;;;1.27;;
7160;SDS011;3622;53.576;9.978;2022-12-07T08:25:53;2.67;;;1.47;;
7160;SDS011;3622;53.576;9.978;2022-12-07T08:28:19;2.20;;;1.03;;
7160;SDS011;3622;53.576;9.978;2022-12-07T08:30:45;5.03;;;1.43;;
7160;SDS011;3622;53.576;9.978;2022-12-07T08:33:12;5.10;;;1.20;;
7160;SDS011;3622;53.576;9.978;2022-12-07T08:35:38;2.70;;;1.33;;
7160;SDS011;3622;53.576;9.978;2022-12-07T08:38:03;2.20;;;1.03;;
7160;SDS011;3622;53.576;9.978;2022-12-07T08:40:30;1.50;;;1.10;;
7160;SDS011;3622;53.576;9.978;2022-12-07T08:42:56;2.70;;;1.17;;
7160;SDS011;3622;53.576;9.978;2022-12-07T08:45:22;4.37;;;1.20;;
7160;SDS011;3622;53.576;9.978;2022-12-07T08:47:55;3.80;;;1.40;;
7160;SDS011;3622;53.576;9.978;2022-12-07T08:50:23;4.47;;;1.70;;
7160;SDS011;3622;53.576;9.978;2022-12-07T08:52:53;6.47;;;1.57;;
7160;SDS011;3622;53.576;9.978;2022-12-07T08:55:19;1.80;;;1.30;;
7160;SDS011;3622;53.576;9.978;2022-12-07T08:57:45;2.20;;;1.27;;
7160;SDS011;3622;53.576;9.978;2022-12-07T09:00:11;3.63;;;1.33;;
7160;SDS011;3622;53.576;9.978;2022-12-07T09:02:37;5.50;;;1.03;;
7160;SDS011;3622;53.576;9.978;2022-12-07T09:05:03;6.67;;;1.20;;
7160;SDS011;3622;53.576;9.978;2022-12-07T09:07:30;4.30;;;1.27;;
7160;SDS011;3622;53.576;9.978;2022-12-07T09:09:56;2.80;;;1.37;;
7160;SDS011;3622;53.576;9.978;2022-12-07T09:12:22;3.40;;;1.47;;
7160;SDS011;3622;53.576;9.978;2022-12-07T09:14:48;5.23;;;1.57;;
7160;SDS011;3622;53.576;9.978;2022-12-07T09:17:14;1.00;;;0.90;;
7160;SDS011;3622;53.576;9.978;2022-12-07T09:19:40;3.43;;;1.77;;
7160;SDS011;3622;53.576;9.978;2022-12-07T09:22:07;3.13;;;1.00;;
7160;SDS011;3622;53.576;9.978;2022-12-07T09:24:33;4.03;;;1.40;;
7160;SDS011;3622;53.576;9.978;2022-12-07T09:26:59;1.70;;;1.20;;
7160;SDS011;3622;53.576;9.978;2022-12-07T09:29:25;2.73;;;1.53;;
7160;SDS011;3622;53.576;9.978;2022-12-07T09:31:51;4.40;;;2.00;;
7160;SDS011;3622;53.576;9.978;2022-12-07T09:34:17;8.30;;;3.13;;
7160;SDS011;3622;53.576;9.978;2022-12-07T09:36:43;4.20;;;2.40;;
7160;SDS011;3622;53.576;9.978;2022-12-07T09:39:09;9.80;;;1.67;;
7160;SDS011;3622;53.576;9.978;2022-12-07T09:41:39;2.73;;;1.47;;
7160;SDS011;3622;53.576;9.978;2022-12-07T09:44:07;5.13;;;1.30;;
7160;SDS011;3622;53.576;9.978;2022-12-07T09:46:39;1.90;;;1.07;;
7160;SDS011;3622;53.576;9.978;2022-12-07T09:49:07;3.70;;;2.30;;
7160;SDS011;3622;53.576;9.978;2022-12-07T09:51:35;1.63;;;1.30;;
7160;SDS011;3622;53.576;9.978;2022-12-07T09:54:01;5.93;;;1.80;;
7160;SDS011;3622;53.576;9.978;2022-12-07T09:56:29;1.47;;;1.00;;
7160;SDS011;3622;53.576;9.978;2022-12-07T09:58:58;2.03;;;1.40;;
7160;SDS011;3622;53.576;9.978;2022-12-07T10:01:27;3.53;;;0.87;;
7160;SDS011;3622;53.576;9.978;2022-12-07T10:03:58;6.10;;;1.43;;
7160;SDS011;3622;53.576;9.978;2022-12-07T10:06:24;1.30;;;1.03;;
7160;SDS011;3622;53.576;9.978;2022-12-07T10:08:50;5.30;;;1.30;;
7160;SDS011;3622;53.576;9.978;2022-12-07T10:11:16;2.50;;;1.20;;
7160;SDS011;3622;53.576;9.978;2022-12-07T10:13:43;4.20;;;1.07;;
7160;SDS011;3622;53.576;9.978;2022-12-07T10:16:27;3.13;;;1.30;;
7160;SDS011;3622;53.576;9.978;2022-12-07T10:18:54;2.47;;;1.00;;
7160;SDS011;3622;53.576;9.978;2022-12-07T10:21:24;2.50;;;1.23;;
7160;SDS011;3622;53.576;9.978;2022-12-07T10:24:01;2.37;;;1.40;;
7160;SDS011;3622;53.576;9.978;2022-12-07T10:26:32;5.07;;;0.90;;
7160;SDS011;3622;53.576;9.978;2022-12-07T10:28:59;2.50;;;0.80;;
7160;SDS011;3622;53.576;9.978;2022-12-07T10:31:26;2.57;;;0.80;;
7160;SDS011;3622;53.576;9.978;2022-12-07T10:33:53;1.60;;;0.97;;
7160;SDS011;3622;53.576;9.978;2022-12-07T10:36:21;2.00;;;0.87;;
7160;SDS011;3622;53.576;9.978;2022-12-07T10:38:48;1.77;;;0.70;;
7160;SDS011;3622;53.576;9.978;2022-12-07T10:41:14;5.53;;;1.17;;
7160;SDS011;3622;53.576;9.978;2022-12-07T10:43:46;4.30;;;1.10;;
7160;SDS011;3622;53.576;9.978;2022-12-07T10:46:22;9.97;;;1.00;;
7160;SDS011;3622;53.576;9.978;2022-12-07T11:01:57;1.73;;;0.60;;
7160;SDS011;3622;53.576;9.978;2022-12-07T11:04:39;0.93;;;0.80;;
7160;SDS011;3622;53.576;9.978;2022-12-07T11:07:21;6.00;;;3.33;;
7160;SDS011;3622;53.576;9.978;2022-12-07T11:12:37;1.63;;;1.10;;
7160;SDS011;3622;53.576;9.978;2022-12-07T11:15:21;3.73;;;1.37;;
7160;SDS011;3622;53.576;9.978;2022-12-07T11:17:50;5.83;;;1.07;;
7160;SDS011;3622;53.576;9.978;2022-12-07T11:20:24;1.83;;;1.50;;
7160;SDS011;3622;53.576;9.978;2022-12-07T11:23:00;4.30;;;1.30;;
7160;SDS011;3622;53.576;9.978;2022-12-07T11:38:18;4.83;;;0.90;;
7160;SDS011;3622;53.576;9.978;2022-12-07T11:40:47;2.13;;;0.90;;
7160;SDS011;3622;53.576;9.978;2022-12-07T11:43:27;8.33;;;1.30;;
7160;SDS011;3622;53.576;9.978;2022-12-07T11:48:40;6.07;;;0.70;;
7160;SDS011;3622;53.576;9.978;2022-12-07T11:51:09;4.37;;;1.37;;
7160;SDS011;3622;53.576;9.978;2022-12-07T11:56:29;5.63;;;1.27;;
7160;SDS011;3622;53.576;9.978;2022-12-07T11:59:01;5.17;;;1.10;;
7160;SDS011;3622;53.576;9.978;2022-12-07T12:09:06;4.93;;;0.97;;
7160;SDS011;3622;53.576;9.978;2022-12-07T12:21:54;2.90;;;1.10;;
7160;SDS011;3622;53.576;9.978;2022-12-07T12:24:22;6.93;;;4.00;;
7160;SDS011;3622;53.576;9.978;2022-12-07T12:26:50;4.53;;;1.07;;
7160;SDS011;3622;53.576;9.978;2022-12-07T12:29:26;5.17;;;1.03;;
7160;SDS011;3622;53.576;9.978;2022-12-07T12:34:39;3.60;;;1.30;;
7160;SDS011;3622;53.576;9.978;2022-12-07T12:42:44;6.63;;;1.57;;
7160;SDS011;3622;53.576;9.978;2022-12-07T12:47:52;3.70;;;0.87;;
7160;SDS011;3622;53.576;9.978;2022-12-07T12:50:20;5.03;;;1.03;;
7160;SDS011;3622;53.576;9.978;2022-12-07T12:52:49;5.30;;;1.10;;
7160;SDS011;3622;53.576;9.978;2022-12-07T12:55:16;1.07;;;0.97;;
7160;SDS011;3622;53.576;9.978;2022-12-07T12:57:46;3.10;;;0.80;;
7160;SDS011;3622;53.576;9.978;2022-12-07T13:00:16;4.13;;;1.30;;
7160;SDS011;3622;53.576;9.978;2022-12-07T13:02:52;2.57;;;0.70;;
7160;SDS011;3622;53.576;9.978;2022-12-07T13:05:28;2.00;;;0.90;;
7160;SDS011;3622;53.576;9.978;2022-12-07T13:07:56;2.10;;;1.00;;
7160;SDS011;3622;53.576;9.978;2022-12-07T13:15:45;5.23;;;1.10;;
7160;SDS011;3622;53.576;9.978;2022-12-07T13:20:56;5.13;;;1.27;;
7160;SDS011;3622;53.576;9.978;2022-12-07T13:28:42;1.77;;;0.70;;
7160;SDS011;3622;53.576;9.978;2022-12-07T13:33:34;5.83;;;1.27;;
7160;SDS011;3622;53.576;9.978;2022-12-07T13:36:00;2.20;;;1.13;;
7160;SDS011;3622;53.576;9.978;2022-12-07T13:38:28;4.20;;;1.60;;
7160;SDS011;3622;53.576;9.978;2022-12-07T13:41:01;12.70;;;1.10;;
7160;SDS011;3622;53.576;9.978;2022-12-07T13:43:28;5.37;;;1.20;;
7160;SDS011;3622;53.576;9.978;2022-12-07T13:45:57;5.83;;;1.13;;
7160;SDS011;3622;53.576;9.978;2022-12-07T13:50:53;3.23;;;0.93;;
7160;SDS011;3622;53.576;9.978;2022-12-07T13:53:19;3.93;;;1.00;;
7160;SDS011;3622;53.576;9.978;2022-12-07T13:55:45;1.90;;;0.57;;
7160;SDS011;3622;53.576;9.978;2022-12-07T13:58:12;4.50;;;0.70;;
7160;SDS011;3622;53.576;9.978;2022-12-07T14:00:39;5.60;;;1.13;;
7160;SDS011;3622;53.576;9.978;2022-12-07T14:05:37;4.70;;;1.20;;
7160;SDS011;3622;53.576;9.978;2022-12-07T14:13:02;5.37;;;0.80;;
7160;SDS011;3622;53.576;9.978;2022-12-07T14:15:31;4.80;;;1.30;;
7160;SDS011;3622;53.576;9.978;2022-12-07T14:17:57;1.43;;;0.57;;
7160;SDS011;3622;53.576;9.978;2022-12-07T14:20:33;4.00;;;0.70;;
7160;SDS011;3622;53.576;9.978;2022-12-07T14:23:01;1.67;;;1.07;;
7160;SDS011;3622;53.576;9.978;2022-12-07T14:25:34;7.10;;;1.77;;
7160;SDS011;3622;53.576;9.978;2022-12-07T14:28:09;4.20;;;0.87;;
7160;SDS011;3622;53.576;9.978;2022-12-07T14:30:49;4.87;;;1.10;;
7160;SDS011;3622;53.576;9.978;2022-12-07T14:33:15;5.90;;;1.00;;
7160;SDS011;3622;53.576;9.978;2022-12-07T14:35:42;2.80;;;1.30;;
7160;SDS011;3622;53.576;9.978;2022-12-07T14:38:08;3.57;;;0.90;;
7160;SDS011;3622;53.576;9.978;2022-12-07T14:40:34;7.93;;;1.00;;
7160;SDS011;3622;53.576;9.978;2022-12-07T14:43:01;1.63;;;0.67;;
7160;SDS011;3622;53.576;9.978;2022-12-07T14:45:27;3.10;;;0.70;;
7160;SDS011;3622;53.576;9.978;2022-12-07T14:47:53;2.80;;;0.80;;
7160;SDS011;3622;53.576;9.978;2022-12-07T14:50:19;1.70;;;0.70;;
7160;SDS011;3622;53.576;9.978;2022-12-07T14:52:47;6.33;;;1.10;;
7160;SDS011;3622;53.576;9.978;2022-12-07T14:55:14;3.93;;;0.90;;
7160;SDS011;3622;53.576;9.978;2022-12-07T14:57:42;4.23;;;1.23;;
7160;SDS011;3622;53.576;9.978;2022-12-07T15:00:09;3.20;;;0.83;;
7160;SDS011;3622;53.576;9.978;2022-12-07T15:02:36;2.07;;;0.97;;
7160;SDS011;3622;53.576;9.978;2022-12-07T15:05:02;2.33;;;0.70;;
7160;SDS011;3622;53.576;9.978;2022-12-07T15:07:28;3.00;;;0.83;;
7160;SDS011;3622;53.576;9.978;2022-12-07T15:09:54;8.97;;;1.27;;
7160;SDS011;3622;53.576;9.978;2022-12-07T15:12:20;4.27;;;1.43;;
7160;SDS011;3622;53.576;9.978;2022-12-07T15:14:46;1.30;;;1.10;;
7160;SDS011;3622;53.576;9.978;2022-12-07T15:17:12;2.20;;;1.23;;
7160;SDS011;3622;53.576;9.978;2022-12-07T15:19:38;3.03;;;1.63;;
7160;SDS011;3622;53.576;9.978;2022-12-07T15:22:04;6.10;;;1.73;;
7160;SDS011;3622;53.576;9.978;2022-12-07T15:24:30;9.00;;;1.27;;
7160;SDS011;3622;53.576;9.978;2022-12-07T15:26:56;3.80;;;1.10;;
7160;SDS011;3622;53.576;9.978;2022-12-07T15:29:22;1.40;;;1.23;;
7160;SDS011;3622;53.576;9.978;2022-12-07T15:31:49;2.10;;;1.40;;
7160;SDS011;3622;53.576;9.978;2022-12-07T15:34:15;3.70;;;1.30;;
7160;SDS011;3622;53.576;9.978;2022-12-07T15:36:41;1.70;;;1.27;;
7160;SDS011;3622;53.576;9.978;2022-12-07T15:39:07;2.80;;;1.30;;
7160;SDS011;3622;53.576;9.978;2022-12-07T15:41:34;4.10;;;1.10;;
7160;SDS011;3622;53.576;9.978;2022-12-07T15:44:00;2.83;;;1.63;;
7160;SDS011;3622;53.576;9.978;2022-12-07T15:46:45;2.13;;;1.07;;
7160;SDS011;3622;53.576;9.978;2022-12-07T15:49:12;1.87;;;1.37;;
7160;SDS011;3622;53.576;9.978;2022-12-07T15:51:39;4.20;;;1.50;;
7160;SDS011;3622;53.576;9.978;2022-12-07T15:54:05;3.23;;;1.17;;
7160;SDS011;3622;53.576;9.978;2022-12-07T15:56:31;1.90;;;1.30;;
7160;SDS011;3622;53.576;9.978;2022-12-07T15:58:57;1.93;;;1.47;;
7160;SDS011;3622;53.576;9.978;2022-12-07T16:01:23;2.80;;;1.60;;
7160;SDS011;3622;53.576;9.978;2022-12-07T16:03:49;4.40;;;1.60;;
7160;SDS011;3622;53.576;9.978;2022-12-07T16:06:16;2.90;;;1.70;;
7160;SDS011;3622;53.576;9.978;2022-12-07T16:08:43;2.30;;;1.50;;
7160;SDS011;3622;53.576;9.978;2022-12-07T16:11:09;2.70;;;2.03;;
7160;SDS011;3622;53.576;9.978;2022-12-07T16:13:35;3.77;;;1.93;;
7160;SDS011;3622;53.576;9.978;2022-12-07T16:16:02;5.73;;;3.37;;
7160;SDS011;3622;53.576;9.978;2022-12-07T16:18:29;9.97;;;4.47;;
7160;SDS011;3622;53.576;9.978;2022-12-07T16:20:54;14.03;;;3.60;;
7160;SDS011;3622;53.576;9.978;2022-12-07T16:23:20;4.73;;;3.50;;
7160;SDS011;3622;53.576;9.978;2022-12-07T16:25:46;3.77;;;2.77;;
7160;SDS011;3622;53.576;9.978;2022-12-07T16:28:12;12.93;;;4.80;;
7160;SDS011;3622;53.576;9.978;2022-12-07T16:30:38;7.50;;;5.10;;
7160;SDS011;3622;53.576;9.978;2022-12-07T16:33:05;6.40;;;3.10;;
7160;SDS011;3622;53.576;9.978;2022-12-07T16:35:31;13.03;;;4.77;;
7160;SDS011;3622;53.576;9.978;2022-12-07T16:37:57;6.23;;;2.70;;
7160;SDS011;3622;53.576;9.978;2022-12-07T16:40:23;14.50;;;7.03;;
7160;SDS011;3622;53.576;9.978;2022-12-07T16:42:49;4.50;;;2.43;;
7160;SDS011;3622;53.576;9.978;2022-12-07T16:45:15;4.03;;;3.00;;
7160;SDS011;3622;53.576;9.978;2022-12-07T16:47:41;5.20;;;3.03;;
7160;SDS011;3622;53.576;9.978;2022-12-07T16:50:07;13.50;;;6.60;;
7160;SDS011;3622;53.576;9.978;2022-12-07T16:52:33;13.73;;;3.60;;
7160;SDS011;3622;53.576;9.978;2022-12-07T16:54:59;3.93;;;3.00;;
7160;SDS011;3622;53.576;9.978;2022-12-07T16:57:25;11.97;;;2.67;;
7160;SDS011;3622;53.576;9.978;2022-12-07T16:59:51;3.73;;;2.10;;
7160;SDS011;3622;53.576;9.978;2022-12-07T17:02:18;4.67;;;2.30;;
7160;SDS011;3622;53.576;9.978;2022-12-07T17:04:44;9.53;;;3.30;;
7160;SDS011;3622;53.576;9.978;2022-12-07T17:07:10;4.67;;;2.10;;
7160;SDS011;3622;53.576;9.978;2022-12-07T17:09:36;7.73;;;2.30;;
7160;SDS011;3622;53.576;9.978;2022-12-07T17:12:02;7.40;;;2.53;;
7160;SDS011;3622;53.576;9.978;2022-12-07T17:14:28;3.70;;;3.30;;